sensor_id;sensor_type;location;lat;lon;timestamp;pressure;altitude;pressure_sealevel;temperature;humidity
61394;BME280;48555;50.952;-0.120;2022-12-29T00:01:36;99218.28;;;12.21;86.52
61394;BME280;48555;50.952;-0.120;2022-12-29T00:04:02;99216.31;;;12.15;86.68
61394;BME280;48555;50.952;-0.120;2022-12-29T00:06:28;99214.50;;;12.15;87.25
61394;BME280;48555;50.952;-0.120;2022-12-29T00:08:53;99214.69;;;12.22;87.43
61394;BME280;48555;50.952;-0.120;2022-12-29T00:11:22;99214.69;;;12.22;87.80
61394;BME280;48555;50.952;-0.120;2022-12-29T00:13:48;99204.34;;;12.20;88.31
61394;BME280;48555;50.952;-0.120;2022-12-29T00:16:34;99226.97;;;12.21;88.74
61394;BME280;48555;50.952;-0.120;2022-12-29T00:18:59;99215.31;;;12.16;88.76
61394;BME280;48555;50.952;-0.120;2022-12-29T00:21:26;99215.31;;;12.16;88.67
61394;BME280;48555;50.952;-0.120;2022-12-29T00:24:21;99198.56;;;12.09;88.80
61394;BME280;48555;50.952;-0.120;2022-12-29T00:27:11;99199.00;;;11.96;88.35
61394;BME280;48555;50.952;-0.120;2022-12-29T00:29:55;99199.50;;;11.91;87.42
61394;BME280;48555;50.952;-0.120;2022-12-29T00:32:40;99201.75;;;11.86;87.33
61394;BME280;48555;50.952;-0.120;2022-12-29T00:35:32;99194.31;;;11.81;86.36
61394;BME280;48555;50.952;-0.120;2022-12-29T00:38:02;99208.91;;;11.84;85.46
61394;BME280;48555;50.952;-0.120;2022-12-29T00:40:47;99193.63;;;11.71;84.84
61394;BME280;48555;50.952;-0.120;2022-12-29T00:43:31;99198.69;;;11.73;83.52
61394;BME280;48555;50.952;-0.120;2022-12-29T00:46:15;99193.94;;;11.68;83.52
61394;BME280;48555;50.952;-0.120;2022-12-29T00:48:40;99199.78;;;11.62;83.30
61394;BME280;48555;50.952;-0.120;2022-12-29T00:51:24;99200.25;;;11.57;84.09
61394;BME280;48555;50.952;-0.120;2022-12-29T00:53:49;99197.78;;;11.56;84.89
61394;BME280;48555;50.952;-0.120;2022-12-29T00:56:15;99194.31;;;11.55;85.00
61394;BME280;48555;50.952;-0.120;2022-12-29T00:58:40;99177.84;;;11.63;84.84
61394;BME280;48555;50.952;-0.120;2022-12-29T01:01:07;99195.50;;;11.61;84.91
61394;BME280;48555;50.952;-0.120;2022-12-29T01:03:35;99194.81;;;11.51;85.44
61394;BME280;48555;50.952;-0.120;2022-12-29T01:06:01;99177.75;;;11.47;85.23
61394;BME280;48555;50.952;-0.120;2022-12-29T01:08:28;99183.66;;;11.49;85.33
61394;BME280;48555;50.952;-0.120;2022-12-29T01:11:01;99192.00;;;11.52;85.43
61394;BME280;48555;50.952;-0.120;2022-12-29T01:13:26;99191.72;;;11.55;85.51
61394;BME280;48555;50.952;-0.120;2022-12-29T01:15:53;99192.56;;;11.56;86.00
61394;BME280;48555;50.952;-0.120;2022-12-29T01:18:19;99198.59;;;11.56;86.15
61394;BME280;48555;50.952;-0.120;2022-12-29T01:20:44;99199.88;;;11.52;87.00
61394;BME280;48555;50.952;-0.120;2022-12-29T01:23:09;99198.06;;;11.53;87.18
61394;BME280;48555;50.952;-0.120;2022-12-29T01:25:35;99194.00;;;11.50;87.74
61394;BME280;48555;50.952;-0.120;2022-12-29T01:28:00;99193.75;;;11.44;87.86
61394;BME280;48555;50.952;-0.120;2022-12-29T01:30:26;99186.59;;;11.46;87.63
61394;BME280;48555;50.952;-0.120;2022-12-29T01:32:51;99191.31;;;11.42;87.14
61394;BME280;48555;50.952;-0.120;2022-12-29T01:35:16;99194.88;;;11.41;87.18
61394;BME280;48555;50.952;-0.120;2022-12-29T01:37:42;99188.69;;;11.42;87.07
61394;BME280;48555;50.952;-0.120;2022-12-29T01:40:07;99182.66;;;11.50;86.44
61394;BME280;48555;50.952;-0.120;2022-12-29T01:42:33;99185.47;;;11.48;86.02
61394;BME280;48555;50.952;-0.120;2022-12-29T01:45:04;99174.22;;;11.56;85.04
61394;BME280;48555;50.952;-0.120;2022-12-29T01:50:03;99166.78;;;11.43;84.53
61394;BME280;48555;50.952;-0.120;2022-12-29T01:52:32;99184.16;;;11.52;84.08
61394;BME280;48555;50.952;-0.120;2022-12-29T01:54:59;99179.72;;;11.45;84.02
61394;BME280;48555;50.952;-0.120;2022-12-29T01:57:30;99187.41;;;11.46;83.96
61394;BME280;48555;50.952;-0.120;2022-12-29T02:00:04;99186.44;;;11.47;84.05
61394;BME280;48555;50.952;-0.120;2022-12-29T02:02:31;99192.81;;;11.45;84.26
61394;BME280;48555;50.952;-0.120;2022-12-29T02:04:58;99187.41;;;11.46;84.06
61394;BME280;48555;50.952;-0.120;2022-12-29T02:07:26;99193.00;;;11.51;84.07
61394;BME280;48555;50.952;-0.120;2022-12-29T02:09:53;99188.91;;;11.49;84.11
61394;BME280;48555;50.952;-0.120;2022-12-29T02:12:21;99195.25;;;11.46;84.45
61394;BME280;48555;50.952;-0.120;2022-12-29T02:14:53;99186.59;;;11.46;84.83
61394;BME280;48555;50.952;-0.120;2022-12-29T02:34:04;99184.47;;;11.49;83.60
61394;BME280;48555;50.952;-0.120;2022-12-29T02:36:45;99181.84;;;11.49;83.25
61394;BME280;48555;50.952;-0.120;2022-12-29T02:39:25;99171.06;;;11.44;83.55
61394;BME280;48555;50.952;-0.120;2022-12-29T02:42:01;99173.66;;;11.44;83.67
61394;BME280;48555;50.952;-0.120;2022-12-29T02:44:47;99185.41;;;11.40;83.73
61394;BME280;48555;50.952;-0.120;2022-12-29T02:50:41;99163.59;;;11.31;82.63
61394;BME280;48555;50.952;-0.120;2022-12-29T02:53:13;99172.56;;;11.29;82.31
61394;BME280;48555;50.952;-0.120;2022-12-29T02:55:48;99162.88;;;11.21;82.25
61394;BME280;48555;50.952;-0.120;2022-12-29T02:58:20;99167.56;;;11.18;82.12
61394;BME280;48555;50.952;-0.120;2022-12-29T03:04:21;99160.31;;;11.11;82.48
61394;BME280;48555;50.952;-0.120;2022-12-29T03:11:53;99161.22;;;11.20;82.86
61394;BME280;48555;50.952;-0.120;2022-12-29T03:14:55;99158.16;;;11.25;83.04
61394;BME280;48555;50.952;-0.120;2022-12-29T03:17:55;99146.69;;;11.26;83.08
61394;BME280;48555;50.952;-0.120;2022-12-29T03:20:41;99150.13;;;11.26;83.40
61394;BME280;48555;50.952;-0.120;2022-12-29T03:23:08;99158.34;;;11.31;83.75
61394;BME280;48555;50.952;-0.120;2022-12-29T03:25:39;99158.34;;;11.31;84.31
61394;BME280;48555;50.952;-0.120;2022-12-29T03:28:09;99155.13;;;11.37;84.18
61394;BME280;48555;50.952;-0.120;2022-12-29T03:30:37;99151.25;;;11.42;84.87
61394;BME280;48555;50.952;-0.120;2022-12-29T03:33:07;99156.31;;;11.43;85.20
61394;BME280;48555;50.952;-0.120;2022-12-29T03:35:37;99157.13;;;11.44;85.23
61394;BME280;48555;50.952;-0.120;2022-12-29T03:38:17;99156.81;;;11.47;84.84
61394;BME280;48555;50.952;-0.120;2022-12-29T03:40:47;99149.63;;;11.49;83.76
61394;BME280;48555;50.952;-0.120;2022-12-29T03:43:14;99153.88;;;11.50;82.70
61394;BME280;48555;50.952;-0.120;2022-12-29T03:45:40;99155.06;;;11.55;82.28
61394;BME280;48555;50.952;-0.120;2022-12-29T03:48:06;99162.50;;;11.68;81.12
61394;BME280;48555;50.952;-0.120;2022-12-29T03:50:31;99158.59;;;11.72;81.01
61394;BME280;48555;50.952;-0.120;2022-12-29T03:52:57;99154.66;;;11.68;80.86
61394;BME280;48555;50.952;-0.120;2022-12-29T03:55:22;99161.38;;;11.71;80.70
61394;BME280;48555;50.952;-0.120;2022-12-29T03:57:48;99166.31;;;11.74;80.86
61394;BME280;48555;50.952;-0.120;2022-12-29T04:00:13;99181.78;;;11.67;80.86
61394;BME280;48555;50.952;-0.120;2022-12-29T04:02:39;99186.06;;;11.68;81.30
61394;BME280;48555;50.952;-0.120;2022-12-29T04:05:04;99154.84;;;11.75;80.44
61394;BME280;48555;50.952;-0.120;2022-12-29T04:07:30;99169.88;;;11.73;79.62
61394;BME280;48555;50.952;-0.120;2022-12-29T04:09:56;99170.69;;;11.73;78.94
61394;BME280;48555;50.952;-0.120;2022-12-29T04:12:21;99180.22;;;11.74;78.77
61394;BME280;48555;50.952;-0.120;2022-12-29T04:14:46;99166.13;;;11.75;79.75
61394;BME280;48555;50.952;-0.120;2022-12-29T04:17:12;99162.88;;;11.81;80.02
61394;BME280;48555;50.952;-0.120;2022-12-29T04:19:38;99165.00;;;11.78;80.18
61394;BME280;48555;50.952;-0.120;2022-12-29T04:22:03;99157.22;;;11.60;80.22
61394;BME280;48555;50.952;-0.120;2022-12-29T04:24:28;99169.25;;;11.71;79.46
61394;BME280;48555;50.952;-0.120;2022-12-29T04:26:54;99169.06;;;11.72;79.53
61394;BME280;48555;50.952;-0.120;2022-12-29T04:29:19;99179.72;;;11.79;79.68
61394;BME280;48555;50.952;-0.120;2022-12-29T04:31:45;99186.41;;;11.73;80.67
61394;BME280;48555;50.952;-0.120;2022-12-29T04:34:10;99183.78;;;11.73;81.60
61394;BME280;48555;50.952;-0.120;2022-12-29T04:36:35;99180.53;;;11.71;82.63
61394;BME280;48555;50.952;-0.120;2022-12-29T04:39:01;99190.19;;;11.71;83.39
61394;BME280;48555;50.952;-0.120;2022-12-29T04:41:27;99189.03;;;11.73;83.66
61394;BME280;48555;50.952;-0.120;2022-12-29T04:43:52;99188.69;;;11.68;84.29
61394;BME280;48555;50.952;-0.120;2022-12-29T04:46:17;99176.41;;;11.69;84.95
61394;BME280;48555;50.952;-0.120;2022-12-29T04:48:43;99182.34;;;11.71;85.71
61394;BME280;48555;50.952;-0.120;2022-12-29T04:51:09;99182.09;;;11.64;86.76
61394;BME280;48555;50.952;-0.120;2022-12-29T04:53:34;99177.34;;;11.59;87.63
61394;BME280;48555;50.952;-0.120;2022-12-29T04:55:59;99185.66;;;11.55;87.88
61394;BME280;48555;50.952;-0.120;2022-12-29T04:58:25;99187.91;;;11.50;89.00
61394;BME280;48555;50.952;-0.120;2022-12-29T05:00:51;99187.59;;;11.53;89.35
61394;BME280;48555;50.952;-0.120;2022-12-29T05:03:16;99193.31;;;11.48;89.96
61394;BME280;48555;50.952;-0.120;2022-12-29T05:05:42;99183.53;;;11.50;89.81
61394;BME280;48555;50.952;-0.120;2022-12-29T05:08:07;99199.72;;;11.54;90.26
61394;BME280;48555;50.952;-0.120;2022-12-29T05:10:33;99197.78;;;11.56;90.26
61394;BME280;48555;50.952;-0.120;2022-12-29T05:12:58;99202.19;;;11.55;90.81
61394;BME280;48555;50.952;-0.120;2022-12-29T05:15:23;99189.09;;;11.55;90.89
61394;BME280;48555;50.952;-0.120;2022-12-29T05:17:49;99205.47;;;11.57;91.12
61394;BME280;48555;50.952;-0.120;2022-12-29T05:20:16;99215.94;;;11.57;91.25
61394;BME280;48555;50.952;-0.120;2022-12-29T05:22:41;99210.72;;;11.57;91.69
61394;BME280;48555;50.952;-0.120;2022-12-29T05:25:07;99213.31;;;11.57;91.64
61394;BME280;48555;50.952;-0.120;2022-12-29T05:27:32;99210.50;;;11.51;92.26
61394;BME280;48555;50.952;-0.120;2022-12-29T05:29:58;99229.03;;;11.57;91.96
61394;BME280;48555;50.952;-0.120;2022-12-29T05:32:23;99243.25;;;11.55;92.07
61394;BME280;48555;50.952;-0.120;2022-12-29T05:34:48;99228.84;;;11.51;91.99
61394;BME280;48555;50.952;-0.120;2022-12-29T05:37:14;99241.94;;;11.51;92.13
61394;BME280;48555;50.952;-0.120;2022-12-29T05:39:40;99259.63;;;11.57;91.84
61394;BME280;48555;50.952;-0.120;2022-12-29T05:42:05;99272.03;;;11.55;91.08
61394;BME280;48555;50.952;-0.120;2022-12-29T05:44:30;99266.81;;;11.55;90.84
61394;BME280;48555;50.952;-0.120;2022-12-29T05:46:56;99284.09;;;11.66;90.23
61394;BME280;48555;50.952;-0.120;2022-12-29T05:49:21;99273.34;;;11.51;89.80
61394;BME280;48555;50.952;-0.120;2022-12-29T05:51:46;99299.63;;;11.67;89.80
61394;BME280;48555;50.952;-0.120;2022-12-29T05:54:12;99310.78;;;11.69;89.28
61394;BME280;48555;50.952;-0.120;2022-12-29T05:56:37;99322.53;;;11.65;89.46
61394;BME280;48555;50.952;-0.120;2022-12-29T05:59:02;99335.31;;;11.68;89.31
61394;BME280;48555;50.952;-0.120;2022-12-29T06:01:28;99349.16;;;11.78;88.65
61394;BME280;48555;50.952;-0.120;2022-12-29T06:03:53;99351.09;;;11.76;88.40
61394;BME280;48555;50.952;-0.120;2022-12-29T06:06:19;99354.31;;;11.70;88.14
61394;BME280;48555;50.952;-0.120;2022-12-29T06:08:45;99368.38;;;11.69;88.41
61394;BME280;48555;50.952;-0.120;2022-12-29T06:11:10;99367.78;;;11.75;87.73
61394;BME280;48555;50.952;-0.120;2022-12-29T06:13:35;99369.88;;;11.72;87.27
61394;BME280;48555;50.952;-0.120;2022-12-29T06:16:01;99381.78;;;11.66;87.04
61394;BME280;48555;50.952;-0.120;2022-12-29T06:18:27;99399.50;;;11.72;86.86
61394;BME280;48555;50.952;-0.120;2022-12-29T06:20:52;99389.50;;;11.68;86.56
61394;BME280;48555;50.952;-0.120;2022-12-29T06:23:17;99409.16;;;11.72;86.23
61394;BME280;48555;50.952;-0.120;2022-12-29T06:25:43;99420.63;;;11.71;86.05
61394;BME280;48555;50.952;-0.120;2022-12-29T06:28:09;99426.00;;;11.69;85.97
61394;BME280;48555;50.952;-0.120;2022-12-29T06:30:35;99429.44;;;11.70;85.98
61394;BME280;48555;50.952;-0.120;2022-12-29T06:33:01;99433.03;;;11.69;85.61
61394;BME280;48555;50.952;-0.120;2022-12-29T06:35:26;99439.09;;;11.69;85.53
61394;BME280;48555;50.952;-0.120;2022-12-29T06:37:51;99440.19;;;11.67;85.09
61394;BME280;48555;50.952;-0.120;2022-12-29T06:40:17;99436.84;;;11.56;85.00
61394;BME280;48555;50.952;-0.120;2022-12-29T06:42:42;99453.19;;;11.58;84.81
61394;BME280;48555;50.952;-0.120;2022-12-29T06:45:08;99457.91;;;11.55;85.09
61394;BME280;48555;50.952;-0.120;2022-12-29T06:47:34;99467.28;;;11.57;84.70
61394;BME280;48555;50.952;-0.120;2022-12-29T06:50:00;99470.31;;;11.53;84.64
61394;BME280;48555;50.952;-0.120;2022-12-29T06:52:26;99477.66;;;11.49;84.60
61394;BME280;48555;50.952;-0.120;2022-12-29T06:54:51;99479.31;;;11.50;84.39
61394;BME280;48555;50.952;-0.120;2022-12-29T06:57:17;99481.53;;;11.45;83.90
61394;BME280;48555;50.952;-0.120;2022-12-29T06:59:42;99493.53;;;11.48;83.63
61394;BME280;48555;50.952;-0.120;2022-12-29T07:02:10;99487.38;;;11.39;83.17
61394;BME280;48555;50.952;-0.120;2022-12-29T07:04:35;99501.28;;;11.40;82.75
61394;BME280;48555;50.952;-0.120;2022-12-29T07:07:00;99501.84;;;11.33;82.36
61394;BME280;48555;50.952;-0.120;2022-12-29T07:09:26;99508.88;;;11.33;81.81
61394;BME280;48555;50.952;-0.120;2022-12-29T07:11:51;99510.81;;;11.31;81.79
61394;BME280;48555;50.952;-0.120;2022-12-29T07:14:16;99505.72;;;11.29;82.42
61394;BME280;48555;50.952;-0.120;2022-12-29T07:16:42;99522.84;;;11.24;82.77
61394;BME280;48555;50.952;-0.120;2022-12-29T07:19:07;99527.50;;;11.20;83.22
61394;BME280;48555;50.952;-0.120;2022-12-29T07:21:32;99529.88;;;11.13;83.37
61394;BME280;48555;50.952;-0.120;2022-12-29T07:23:58;99536.50;;;11.08;83.84
61394;BME280;48555;50.952;-0.120;2022-12-29T07:26:23;99531.84;;;11.02;84.58
61394;BME280;48555;50.952;-0.120;2022-12-29T07:28:49;99527.06;;;10.97;84.53
61394;BME280;48555;50.952;-0.120;2022-12-29T07:31:19;99537.41;;;10.89;84.92
61394;BME280;48555;50.952;-0.120;2022-12-29T07:33:45;99548.00;;;10.87;85.13
61394;BME280;48555;50.952;-0.120;2022-12-29T07:36:11;99542.22;;;10.84;85.29
61394;BME280;48555;50.952;-0.120;2022-12-29T07:38:37;99556.56;;;10.80;85.17
61394;BME280;48555;50.952;-0.120;2022-12-29T07:41:03;99551.63;;;10.77;85.13
61394;BME280;48555;50.952;-0.120;2022-12-29T07:43:28;99549.13;;;10.75;85.19
61394;BME280;48555;50.952;-0.120;2022-12-29T07:45:54;99560.16;;;10.69;85.44
61394;BME280;48555;50.952;-0.120;2022-12-29T07:48:19;99554.09;;;10.68;85.28
61394;BME280;48555;50.952;-0.120;2022-12-29T07:50:45;99561.94;;;10.68;85.13
61394;BME280;48555;50.952;-0.120;2022-12-29T07:53:10;99563.03;;;10.66;85.05
61394;BME280;48555;50.952;-0.120;2022-12-29T07:55:36;99554.09;;;10.59;85.19
61394;BME280;48555;50.952;-0.120;2022-12-29T07:58:01;99565.41;;;10.59;85.35
61394;BME280;48555;50.952;-0.120;2022-12-29T08:00:26;99565.66;;;10.56;85.56
61394;BME280;48555;50.952;-0.120;2022-12-29T08:02:52;99572.66;;;10.56;85.69
61394;BME280;48555;50.952;-0.120;2022-12-29T08:05:18;99589.47;;;10.53;85.62
61394;BME280;48555;50.952;-0.120;2022-12-29T08:07:44;99583.81;;;10.48;85.69
61394;BME280;48555;50.952;-0.120;2022-12-29T08:10:10;99585.19;;;10.52;85.77
61394;BME280;48555;50.952;-0.120;2022-12-29T08:12:37;99587.53;;;10.45;85.55
61394;BME280;48555;50.952;-0.120;2022-12-29T08:15:03;99596.06;;;10.48;85.79
61394;BME280;48555;50.952;-0.120;2022-12-29T08:17:29;99603.34;;;10.44;85.50
61394;BME280;48555;50.952;-0.120;2022-12-29T08:19:54;99605.56;;;10.49;85.53
61394;BME280;48555;50.952;-0.120;2022-12-29T08:22:20;99614.09;;;10.51;85.29
61394;BME280;48555;50.952;-0.120;2022-12-29T08:24:45;99616.72;;;10.51;85.13
61394;BME280;48555;50.952;-0.120;2022-12-29T08:27:10;99633.34;;;10.50;84.97
61394;BME280;48555;50.952;-0.120;2022-12-29T08:29:36;99633.75;;;10.45;85.09
61394;BME280;48555;50.952;-0.120;2022-12-29T08:32:01;99636.91;;;10.49;84.93
61394;BME280;48555;50.952;-0.120;2022-12-29T08:34:27;99653.03;;;10.54;84.55
61394;BME280;48555;50.952;-0.120;2022-12-29T08:36:52;99643.50;;;10.53;84.92
61394;BME280;48555;50.952;-0.120;2022-12-29T08:39:17;99641.75;;;10.63;84.67
61394;BME280;48555;50.952;-0.120;2022-12-29T08:41:43;99661.00;;;10.72;84.43
61394;BME280;48555;50.952;-0.120;2022-12-29T08:44:11;99663.63;;;10.72;84.35
61394;BME280;48555;50.952;-0.120;2022-12-29T08:46:36;99662.25;;;10.77;84.30
61394;BME280;48555;50.952;-0.120;2022-12-29T08:49:02;99666.53;;;10.98;84.43
61394;BME280;48555;50.952;-0.120;2022-12-29T08:51:27;99664.28;;;11.22;84.07
61394;BME280;48555;50.952;-0.120;2022-12-29T08:53:53;99662.31;;;11.34;83.55
61394;BME280;48555;50.952;-0.120;2022-12-29T08:56:18;99662.19;;;11.35;83.42
61394;BME280;48555;50.952;-0.120;2022-12-29T08:58:43;99661.91;;;11.29;83.28
61394;BME280;48555;50.952;-0.120;2022-12-29T09:01:09;99665.78;;;11.25;83.24
61394;BME280;48555;50.952;-0.120;2022-12-29T09:03:35;99670.34;;;11.23;83.28
61394;BME280;48555;50.952;-0.120;2022-12-29T09:06:00;99681.47;;;11.34;83.53
61394;BME280;48555;50.952;-0.120;2022-12-29T09:08:26;99669.31;;;11.43;83.49
61394;BME280;48555;50.952;-0.120;2022-12-29T09:10:51;99679.63;;;11.54;83.28
61394;BME280;48555;50.952;-0.120;2022-12-29T09:13:17;99677.25;;;11.61;83.10
61394;BME280;48555;50.952;-0.120;2022-12-29T09:15:42;99683.72;;;11.67;82.91
61394;BME280;48555;50.952;-0.120;2022-12-29T09:18:08;99689.22;;;11.73;82.48
61394;BME280;48555;50.952;-0.120;2022-12-29T09:20:34;99704.38;;;11.79;82.54
61394;BME280;48555;50.952;-0.120;2022-12-29T09:23:00;99693.75;;;11.81;82.04
61394;BME280;48555;50.952;-0.120;2022-12-29T09:25:25;99693.19;;;11.87;81.47
61394;BME280;48555;50.952;-0.120;2022-12-29T09:27:52;99698.44;;;11.77;80.92
61394;BME280;48555;50.952;-0.120;2022-12-29T09:30:21;99706.16;;;11.79;80.88
61394;BME280;48555;50.952;-0.120;2022-12-29T09:32:47;99706.84;;;11.81;80.55
61394;BME280;48555;50.952;-0.120;2022-12-29T09:35:16;99707.94;;;11.78;80.53
61394;BME280;48555;50.952;-0.120;2022-12-29T09:37:42;99706.84;;;11.81;80.41
61394;BME280;48555;50.952;-0.120;2022-12-29T09:40:30;99711.94;;;11.82;80.31
61394;BME280;48555;50.952;-0.120;2022-12-29T09:43:09;99718.03;;;11.73;80.83
61394;BME280;48555;50.952;-0.120;2022-12-29T09:48:30;99718.59;;;11.77;81.38
61394;BME280;48555;50.952;-0.120;2022-12-29T09:51:00;99725.19;;;11.81;81.43
61394;BME280;48555;50.952;-0.120;2022-12-29T09:53:33;99732.50;;;11.77;81.10
61394;BME280;48555;50.952;-0.120;2022-12-29T09:56:01;99740.88;;;11.81;80.95
61394;BME280;48555;50.952;-0.120;2022-12-29T09:58:56;99736.63;;;11.90;80.61
61394;BME280;48555;50.952;-0.120;2022-12-29T10:01:36;99752.88;;;11.93;80.47
61394;BME280;48555;50.952;-0.120;2022-12-29T10:04:06;99766.22;;;12.10;80.29
61394;BME280;48555;50.952;-0.120;2022-12-29T10:06:57;99759.31;;;12.09;79.97
61394;BME280;48555;50.952;-0.120;2022-12-29T10:10:00;99766.88;;;12.12;79.44
61394;BME280;48555;50.952;-0.120;2022-12-29T10:18:04;99786.38;;;11.99;77.91
61394;BME280;48555;50.952;-0.120;2022-12-29T10:23:47;99791.59;;;11.99;77.15
61394;BME280;48555;50.952;-0.120;2022-12-29T10:26:19;99793.13;;;12.02;77.13
61394;BME280;48555;50.952;-0.120;2022-12-29T10:29:09;99788.56;;;12.04;77.39
61394;BME280;48555;50.952;-0.120;2022-12-29T10:31:45;99784.41;;;12.11;77.02
61394;BME280;48555;50.952;-0.120;2022-12-29T10:34:37;99794.47;;;12.16;76.46
61394;BME280;48555;50.952;-0.120;2022-12-29T10:37:11;99783.16;;;12.15;75.99
61394;BME280;48555;50.952;-0.120;2022-12-29T10:39:42;99800.09;;;12.21;75.91
61394;BME280;48555;50.952;-0.120;2022-12-29T10:42:26;99790.72;;;12.18;75.34
61394;BME280;48555;50.952;-0.120;2022-12-29T10:44:56;99804.78;;;12.17;74.83
61394;BME280;48555;50.952;-0.120;2022-12-29T10:47:25;99818.88;;;12.16;74.21
61394;BME280;48555;50.952;-0.120;2022-12-29T10:49:53;99819.56;;;12.18;74.22
61394;BME280;48555;50.952;-0.120;2022-12-29T10:52:20;99818.59;;;12.19;74.00
61394;BME280;48555;50.952;-0.120;2022-12-29T10:55:08;99825.75;;;12.17;73.33
61394;BME280;48555;50.952;-0.120;2022-12-29T10:57:44;99821.91;;;12.21;73.55
61394;BME280;48555;50.952;-0.120;2022-12-29T11:00:15;99834.72;;;12.24;73.83
61394;BME280;48555;50.952;-0.120;2022-12-29T11:08:00;99833.09;;;12.14;72.71
61394;BME280;48555;50.952;-0.120;2022-12-29T11:13:17;99845.22;;;12.15;72.80
61394;BME280;48555;50.952;-0.120;2022-12-29T11:15:46;99836.53;;;12.14;72.69
61394;BME280;48555;50.952;-0.120;2022-12-29T11:20:44;99856.94;;;12.11;72.77
61394;BME280;48555;50.952;-0.120;2022-12-29T11:28:31;99862.06;;;12.12;71.63
61394;BME280;48555;50.952;-0.120;2022-12-29T11:31:03;99862.75;;;12.04;71.38
61394;BME280;48555;50.952;-0.120;2022-12-29T11:33:30;99866.63;;;12.00;71.04
61394;BME280;48555;50.952;-0.120;2022-12-29T11:36:16;99878.63;;;12.03;70.74
61394;BME280;48555;50.952;-0.120;2022-12-29T11:38:46;99864.97;;;11.99;70.88
61394;BME280;48555;50.952;-0.120;2022-12-29T11:41:21;99873.53;;;12.01;70.67
61394;BME280;48555;50.952;-0.120;2022-12-29T11:43:47;99873.38;;;11.93;70.26
61394;BME280;48555;50.952;-0.120;2022-12-29T11:46:44;99874.78;;;11.88;70.39
61394;BME280;48555;50.952;-0.120;2022-12-29T11:49:13;99884.84;;;11.92;70.49
61394;BME280;48555;50.952;-0.120;2022-12-29T11:51:46;99866.91;;;11.88;69.92
61394;BME280;48555;50.952;-0.120;2022-12-29T11:54:21;99892.00;;;11.90;69.84
61394;BME280;48555;50.952;-0.120;2022-12-29T11:56:48;99884.97;;;11.91;69.84
61394;BME280;48555;50.952;-0.120;2022-12-29T11:59:38;99886.09;;;11.98;69.81
61394;BME280;48555;50.952;-0.120;2022-12-29T12:02:20;99885.09;;;11.99;69.84
61394;BME280;48555;50.952;-0.120;2022-12-29T12:04:48;99884.81;;;12.02;69.85
61394;BME280;48555;50.952;-0.120;2022-12-29T12:07:22;99882.34;;;12.00;70.09
61394;BME280;48555;50.952;-0.120;2022-12-29T12:10:00;99887.19;;;11.95;70.08
61394;BME280;48555;50.952;-0.120;2022-12-29T12:15:35;99895.19;;;12.03;70.45
61394;BME280;48555;50.952;-0.120;2022-12-29T12:18:54;99892.13;;;12.08;70.47
61394;BME280;48555;50.952;-0.120;2022-12-29T12:21:36;99891.72;;;11.93;69.71
61394;BME280;48555;50.952;-0.120;2022-12-29T12:27:10;99892.28;;;11.97;68.56
61394;BME280;48555;50.952;-0.120;2022-12-29T12:32:19;99889.81;;;11.95;67.77
61394;BME280;48555;50.952;-0.120;2022-12-29T12:34:47;99891.44;;;11.96;66.80
61394;BME280;48555;50.952;-0.120;2022-12-29T12:51:00;99895.72;;;11.68;64.37
61394;BME280;48555;50.952;-0.120;2022-12-29T13:01:56;99907.00;;;11.69;64.98
61394;BME280;48555;50.952;-0.120;2022-12-29T13:07:43;99906.47;;;11.65;65.76
61394;BME280;48555;50.952;-0.120;2022-12-29T13:19:52;99902.88;;;11.56;66.66
61394;BME280;48555;50.952;-0.120;2022-12-29T13:25:41;99898.88;;;11.62;67.16
61394;BME280;48555;50.952;-0.120;2022-12-29T13:28:24;99903.00;;;11.65;67.55
61394;BME280;48555;50.952;-0.120;2022-12-29T13:36:08;99910.47;;;11.69;67.84
61394;BME280;48555;50.952;-0.120;2022-12-29T13:38:44;99898.88;;;11.72;67.77
61394;BME280;48555;50.952;-0.120;2022-12-29T13:41:27;99902.47;;;11.71;68.05
61394;BME280;48555;50.952;-0.120;2022-12-29T13:43:55;99898.72;;;11.73;67.72
61394;BME280;48555;50.952;-0.120;2022-12-29T13:46:27;99900.97;;;11.68;68.17
61394;BME280;48555;50.952;-0.120;2022-12-29T13:49:05;99911.81;;;11.64;68.05
61394;BME280;48555;50.952;-0.120;2022-12-29T13:51:34;99905.22;;;11.69;67.32
61394;BME280;48555;50.952;-0.120;2022-12-29T13:57:08;99921.75;;;11.60;67.44
61394;BME280;48555;50.952;-0.120;2022-12-29T13:59:56;99909.91;;;11.56;67.40
61394;BME280;48555;50.952;-0.120;2022-12-29T14:07:46;99913.34;;;11.56;66.78
61394;BME280;48555;50.952;-0.120;2022-12-29T14:10:36;99913.31;;;11.47;66.79
61394;BME280;48555;50.952;-0.120;2022-12-29T14:15:29;99913.75;;;11.52;66.25
61394;BME280;48555;50.952;-0.120;2022-12-29T14:18:17;99918.97;;;11.52;65.55
61394;BME280;48555;50.952;-0.120;2022-12-29T14:21:00;99912.38;;;11.48;64.74
61394;BME280;48555;50.952;-0.120;2022-12-29T14:23:41;99931.66;;;11.47;64.46
61394;BME280;48555;50.952;-0.120;2022-12-29T14:26:11;99927.81;;;11.51;64.23
61394;BME280;48555;50.952;-0.120;2022-12-29T14:28:39;99923.78;;;11.37;64.63
61394;BME280;48555;50.952;-0.120;2022-12-29T14:39:18;99929.69;;;11.29;64.08
61394;BME280;48555;50.952;-0.120;2022-12-29T14:42:20;99938.50;;;11.28;64.47
61394;BME280;48555;50.952;-0.120;2022-12-29T14:44:51;99939.47;;;11.27;64.28
61394;BME280;48555;50.952;-0.120;2022-12-29T14:47:31;99930.09;;;11.15;64.80
61394;BME280;48555;50.952;-0.120;2022-12-29T14:52:29;99945.34;;;11.10;64.61
61394;BME280;48555;50.952;-0.120;2022-12-29T14:57:44;99947.81;;;11.11;64.85
61394;BME280;48555;50.952;-0.120;2022-12-29T15:00:26;99947.97;;;11.10;65.06
61394;BME280;48555;50.952;-0.120;2022-12-29T15:03:20;99950.03;;;11.06;65.25
61394;BME280;48555;50.952;-0.120;2022-12-29T15:05:50;99956.09;;;11.07;65.71
61394;BME280;48555;50.952;-0.120;2022-12-29T15:08:20;99962.41;;;11.04;65.75
61394;BME280;48555;50.952;-0.120;2022-12-29T15:11:00;99964.47;;;11.01;65.92
61394;BME280;48555;50.952;-0.120;2022-12-29T15:13:37;99975.59;;;11.03;66.02
61394;BME280;48555;50.952;-0.120;2022-12-29T15:16:04;99971.88;;;10.96;66.38
61394;BME280;48555;50.952;-0.120;2022-12-29T15:18:32;99974.47;;;10.96;66.50
61394;BME280;48555;50.952;-0.120;2022-12-29T15:21:04;99986.31;;;11.00;66.71